Nearby METAR Reports

 

KSJC - San Jose, California, USA
Distance from station: NE 14km
Actualización: 09/08/2020 00:53
Few Clouds
Few Clouds
 Viento del NO
Viento: NO 19 km/h
Temperatura: 28°C
Heat Index: 28°C
Rocío: 14°C
Humedad: 42%
Barómetro: 1012.9 hPa
Clouds: Few Clouds
Visibility: 16 km
Cloud details: Few Clouds 1829 m
Few Clouds 2438 m
2020/08/08 22:53 KSJC 082253Z 31010KT 10SM FEW060 FEW080 28/14 A2991 RMK AO2 SLP127 T02780144
KNUQ - Moffett Nas/Mtn, California, USA
Distance from station: N 14km
Actualización: 08/08/2020 15:55
NOT Current
Parcialmente nuboso
Parcialmente nuboso
 Viento del SE
Viento: SE 7 km/h
Temperatura: 15°C
Rocío: 13°C
Humedad: 88%
Barómetro: 1014.6 hPa
Clouds: Parcialmente nuboso
Visibility: 14 km
Cloud details: Parcialmente nuboso 305 m
2020/08/08 13:55 KNUQ 081355Z AUTO 13004KT 9SM SCT010 15/13 A2996 RMK AO2
 
KPAO - Palo Alto, California, USA
Distance from station: NNO 23km
Actualización: 09/08/2020 00:47
Despejado
Despejado
 Viento del N
Viento: N 20 km/h
Temperatura: 24°C
Rocío: 16°C
Humedad: 61%
Barómetro: 1013.5 hPa
Clouds: Despejado
Visibility: 16 km
2020/08/08 22:47 KPAO 082247Z 36011KT 10SM SKC 24/16 A2993
KRHV - San Jose/Reid, California, USA
Distance from station: ENE 19km
Actualización: 09/08/2020 00:50
Despejado
Despejado
 Viento del NO
Viento: NO 15 km/h
Temperatura: 31°C
Heat Index: 31°C
Rocío: 16°C
Humedad: 40%
Barómetro: 1012.9 hPa
Clouds: Despejado
Visibility: 16 km
2020/08/08 22:50 KRHV 082250Z 32008KT 10SM SKC 31/16 A2991
 
KOAK - Oakland, California, USA
Distance from station: NNO 50km
Actualización: 09/08/2020 00:53
Few Clouds
Few Clouds
 Viento del ONO
Viento: ONO 26 km/h
Temperatura: 24°C
Rocío: 14°C
Humedad: 54%
Barómetro: 1013.5 hPa
Clouds: Few Clouds
Visibility: 16 km
Cloud details: Few Clouds 305 m
2020/08/08 22:53 KOAK 082253Z 30014KT 10SM FEW010 24/14 A2993 RMK AO2 SLP136 T02390139
KSQL - San Carlos Airpo, California, USA
Distance from station: NO 34km
Actualización: 09/08/2020 00:52
Despejado
Despejado
 Viento del N
Viento: N 22 km/h
Temperatura: 22°C
Rocío: 17°C
Humedad: 73%
Barómetro: 1013.5 hPa
Clouds: Despejado
Visibility: 16 km
2020/08/08 22:52 KSQL 082252Z 36012KT 10SM SKC 22/17 A2993
 
KSFO - San Francisco, California, USA
Distance from station: NO 49km
Actualización: 09/08/2020 00:56
Few Clouds
Few Clouds
 Viento del NNE
Viento: NNE 11 km/h
Temperatura: 24°C
Rocío: 16°C
Humedad: 61%
Barómetro: 1013.2 hPa
Clouds: Few Clouds
Visibility: 16 km
Cloud details: Few Clouds 213 m
Few Clouds 5486 m
2020/08/08 22:56 KSFO 082256Z 03006KT 10SM FEW007 FEW180 24/16 A2992 RMK AO2 SLP130 T02390156
KE16 - San Martin, California, USA
Distance from station: ESE 43km
Actualización: 09/08/2020 00:50
Despejado
Despejado
 Viento del S
Viento: S 17 km/h
Temperatura: 28°C
Heat Index: 27°C
Rocío: 13°C
Humedad: 40%
Barómetro: 1013.5 hPa
Clouds: Despejado
Visibility: 16 km
2020/08/08 22:50 KE16 082250Z AUTO 18009KT 10SM CLR 28/13 A2993 RMK AO2 PWINO PNO
 
KWVI - Watsonville, California, USA
Distance from station: SSE 44km
Actualización: 09/08/2020 00:53
Despejado
Despejado
 Viento del OSO
Viento: OSO 15 km/h
Temperatura: 50°C
Rocío: 13°C
Humedad: 12%
Barómetro: 1015.2 hPa
Clouds: Despejado
Visibility: 16 km
2020/08/08 22:53 KWVI 082253Z AUTO 25008KT 10SM CLR 50/13 A2998 RMK AO2 SLP151 T05000133 $
KHAF - Half Moon Bay, California, USA
Distance from station: ONO 50km
Actualización: 09/08/2020 00:55
Cubierto
Cubierto
 Viento del SSE
Viento: SSE 19 km/h
Temperatura: 15°C
Rocío: 13°C
Humedad: 88%
Barómetro: 1015.6 hPa
Clouds: Cubierto
Visibility: 11 km
Cloud details: Cubierto 122 m
2020/08/08 22:55 KHAF 082255Z AUTO 15010KT 7SM OVC004 15/13 A2999 RMK AO2
 
KHWD - Hayward, California, USA
Distance from station: N 44km
Actualización: 09/08/2020 00:54
Despejado
Despejado
 Viento del NO
Viento: NO 17 km/h, Racha: 30 km/h
Temperatura: 27°C
Heat Index: 27°C
Rocío: 13°C
Humedad: 42%
Barómetro: 1013.2 hPa
Clouds: Despejado
Visibility: 16 km
2020/08/08 22:54 KHWD 082254Z 31009G16KT 10SM CLR 27/13 A2992 RMK AO2 SLP140 T02720128
KLVK - Livermore, California, USA
Distance from station: NNE 51km
Actualización: 09/08/2020 00:53
Despejado
Despejado
 Viento del ONO
Viento: ONO 22 km/h
Temperatura: 32°C
Rocío: 13°C
Humedad: 31%
Barómetro: 1012.2 hPa
Clouds: Despejado
Visibility: 16 km
2020/08/08 22:53 KLVK 082253Z 30012KT 10SM CLR 32/13 A2989 RMK AO2 SLP115 T03220128